sensor_id;sensor_type;location;lat;lon;timestamp;P1;durP1;ratioP1;P2;durP2;ratioP2
44508;SDS011;30214;52.246;14.408;2023-08-17T00:00:16;3.63;;;1.80;;
44508;SDS011;30214;52.246;14.408;2023-08-17T00:02:44;6.45;;;2.28;;
44508;SDS011;30214;52.246;14.408;2023-08-17T00:05:11;9.23;;;2.10;;
44508;SDS011;30214;52.246;14.408;2023-08-17T00:07:38;7.68;;;2.55;;
44508;SDS011;30214;52.246;14.408;2023-08-17T00:10:05;4.40;;;2.13;;
44508;SDS011;30214;52.246;14.408;2023-08-17T00:12:32;7.68;;;1.85;;
44508;SDS011;30214;52.246;14.408;2023-08-17T00:15:00;5.05;;;2.10;;
44508;SDS011;30214;52.246;14.408;2023-08-17T00:17:27;4.82;;;1.95;;
44508;SDS011;30214;52.246;14.408;2023-08-17T00:19:55;9.90;;;2.08;;
44508;SDS011;30214;52.246;14.408;2023-08-17T00:22:22;8.23;;;2.45;;
44508;SDS011;30214;52.246;14.408;2023-08-17T00:24:49;7.88;;;2.30;;
44508;SDS011;30214;52.246;14.408;2023-08-17T00:27:15;6.93;;;2.58;;
44508;SDS011;30214;52.246;14.408;2023-08-17T00:29:42;6.03;;;2.20;;
44508;SDS011;30214;52.246;14.408;2023-08-17T00:32:10;7.97;;;2.13;;
44508;SDS011;30214;52.246;14.408;2023-08-17T00:34:37;5.47;;;2.35;;
44508;SDS011;30214;52.246;14.408;2023-08-17T00:37:04;6.93;;;2.40;;
44508;SDS011;30214;52.246;14.408;2023-08-17T00:39:31;7.47;;;2.03;;
44508;SDS011;30214;52.246;14.408;2023-08-17T00:41:58;10.90;;;2.85;;
44508;SDS011;30214;52.246;14.408;2023-08-17T00:44:25;7.80;;;2.20;;
44508;SDS011;30214;52.246;14.408;2023-08-17T00:46:52;8.70;;;2.33;;
44508;SDS011;30214;52.246;14.408;2023-08-17T00:49:20;5.40;;;2.03;;
44508;SDS011;30214;52.246;14.408;2023-08-17T00:51:47;5.53;;;2.08;;
44508;SDS011;30214;52.246;14.408;2023-08-17T00:54:14;8.73;;;3.00;;
44508;SDS011;30214;52.246;14.408;2023-08-17T00:56:44;12.15;;;2.50;;
44508;SDS011;30214;52.246;14.408;2023-08-17T00:59:11;5.68;;;2.42;;
44508;SDS011;30214;52.246;14.408;2023-08-17T01:01:38;6.22;;;2.55;;
44508;SDS011;30214;52.246;14.408;2023-08-17T01:04:05;6.65;;;2.30;;
44508;SDS011;30214;52.246;14.408;2023-08-17T01:06:36;9.48;;;2.40;;
44508;SDS011;30214;52.246;14.408;2023-08-17T01:09:05;7.28;;;2.38;;
44508;SDS011;30214;52.246;14.408;2023-08-17T01:11:34;7.57;;;2.22;;
44508;SDS011;30214;52.246;14.408;2023-08-17T01:14:09;5.07;;;2.30;;
44508;SDS011;30214;52.246;14.408;2023-08-17T01:16:43;5.55;;;2.17;;
44508;SDS011;30214;52.246;14.408;2023-08-17T01:19:17;5.78;;;2.08;;
44508;SDS011;30214;52.246;14.408;2023-08-17T01:21:54;6.18;;;2.13;;
44508;SDS011;30214;52.246;14.408;2023-08-17T01:24:27;5.82;;;2.47;;
44508;SDS011;30214;52.246;14.408;2023-08-17T01:26:54;7.72;;;2.78;;
44508;SDS011;30214;52.246;14.408;2023-08-17T01:29:21;6.38;;;2.60;;
44508;SDS011;30214;52.246;14.408;2023-08-17T01:31:51;5.25;;;2.30;;
44508;SDS011;30214;52.246;14.408;2023-08-17T01:34:22;6.03;;;2.30;;
44508;SDS011;30214;52.246;14.408;2023-08-17T01:36:53;7.00;;;2.60;;
44508;SDS011;30214;52.246;14.408;2023-08-17T01:39:26;6.35;;;2.30;;
44508;SDS011;30214;52.246;14.408;2023-08-17T01:41:59;7.65;;;2.53;;
44508;SDS011;30214;52.246;14.408;2023-08-17T01:44:27;5.20;;;1.90;;
44508;SDS011;30214;52.246;14.408;2023-08-17T01:46:54;5.10;;;2.20;;
44508;SDS011;30214;52.246;14.408;2023-08-17T01:49:21;4.93;;;1.92;;
44508;SDS011;30214;52.246;14.408;2023-08-17T01:51:48;5.95;;;2.63;;
44508;SDS011;30214;52.246;14.408;2023-08-17T01:54:15;8.95;;;2.60;;
44508;SDS011;30214;52.246;14.408;2023-08-17T01:56:43;6.35;;;2.10;;
44508;SDS011;30214;52.246;14.408;2023-08-17T01:59:11;5.57;;;2.35;;
44508;SDS011;30214;52.246;14.408;2023-08-17T02:01:38;4.00;;;2.30;;
44508;SDS011;30214;52.246;14.408;2023-08-17T02:04:05;4.03;;;2.20;;
44508;SDS011;30214;52.246;14.408;2023-08-17T02:06:32;7.47;;;2.40;;
44508;SDS011;30214;52.246;14.408;2023-08-17T02:08:59;6.72;;;2.20;;
44508;SDS011;30214;52.246;14.408;2023-08-17T02:11:26;6.35;;;2.58;;
44508;SDS011;30214;52.246;14.408;2023-08-17T02:13:54;6.95;;;2.25;;
44508;SDS011;30214;52.246;14.408;2023-08-17T02:16:21;7.25;;;2.20;;
44508;SDS011;30214;52.246;14.408;2023-08-17T02:18:48;4.57;;;2.03;;
44508;SDS011;30214;52.246;14.408;2023-08-17T02:21:16;7.28;;;2.20;;
44508;SDS011;30214;52.246;14.408;2023-08-17T02:23:43;4.32;;;2.05;;
44508;SDS011;30214;52.246;14.408;2023-08-17T02:26:10;5.15;;;2.05;;
44508;SDS011;30214;52.246;14.408;2023-08-17T02:28:38;8.13;;;2.20;;
44508;SDS011;30214;52.246;14.408;2023-08-17T02:31:06;5.10;;;2.00;;
44508;SDS011;30214;52.246;14.408;2023-08-17T02:33:33;3.65;;;1.98;;
44508;SDS011;30214;52.246;14.408;2023-08-17T02:36:04;9.35;;;1.90;;
44508;SDS011;30214;52.246;14.408;2023-08-17T02:38:32;8.85;;;1.90;;
44508;SDS011;30214;52.246;14.408;2023-08-17T02:40:59;5.40;;;2.20;;
44508;SDS011;30214;52.246;14.408;2023-08-17T02:43:25;6.75;;;2.17;;
44508;SDS011;30214;52.246;14.408;2023-08-17T02:45:52;4.95;;;2.38;;
44508;SDS011;30214;52.246;14.408;2023-08-17T02:48:21;9.43;;;2.33;;
44508;SDS011;30214;52.246;14.408;2023-08-17T02:50:48;8.50;;;2.20;;
44508;SDS011;30214;52.246;14.408;2023-08-17T02:53:15;6.53;;;2.25;;
44508;SDS011;30214;52.246;14.408;2023-08-17T02:55:41;6.88;;;2.15;;
44508;SDS011;30214;52.246;14.408;2023-08-17T02:58:08;6.65;;;2.40;;
44508;SDS011;30214;52.246;14.408;2023-08-17T03:00:35;7.35;;;2.38;;
44508;SDS011;30214;52.246;14.408;2023-08-17T03:03:02;7.57;;;2.08;;
44508;SDS011;30214;52.246;14.408;2023-08-17T03:05:31;4.90;;;2.28;;
44508;SDS011;30214;52.246;14.408;2023-08-17T03:07:59;5.20;;;2.17;;
44508;SDS011;30214;52.246;14.408;2023-08-17T03:10:26;5.90;;;2.17;;
44508;SDS011;30214;52.246;14.408;2023-08-17T03:12:53;7.07;;;2.45;;
44508;SDS011;30214;52.246;14.408;2023-08-17T03:15:20;7.15;;;2.50;;
44508;SDS011;30214;52.246;14.408;2023-08-17T03:17:47;6.35;;;2.35;;
44508;SDS011;30214;52.246;14.408;2023-08-17T03:20:13;11.60;;;3.50;;
44508;SDS011;30214;52.246;14.408;2023-08-17T03:22:42;7.32;;;2.28;;
44508;SDS011;30214;52.246;14.408;2023-08-17T03:25:10;4.20;;;1.90;;
44508;SDS011;30214;52.246;14.408;2023-08-17T03:27:37;8.10;;;2.38;;
44508;SDS011;30214;52.246;14.408;2023-08-17T03:30:04;5.32;;;2.22;;
44508;SDS011;30214;52.246;14.408;2023-08-17T03:32:32;5.95;;;2.20;;
44508;SDS011;30214;52.246;14.408;2023-08-17T03:34:59;4.90;;;2.20;;
44508;SDS011;30214;52.246;14.408;2023-08-17T03:37:26;6.47;;;2.40;;
44508;SDS011;30214;52.246;14.408;2023-08-17T03:39:55;6.65;;;2.30;;
44508;SDS011;30214;52.246;14.408;2023-08-17T03:42:22;6.00;;;2.08;;
44508;SDS011;30214;52.246;14.408;2023-08-17T03:44:48;6.68;;;2.40;;
44508;SDS011;30214;52.246;14.408;2023-08-17T03:47:15;7.18;;;2.40;;
44508;SDS011;30214;52.246;14.408;2023-08-17T03:49:42;4.32;;;1.98;;
44508;SDS011;30214;52.246;14.408;2023-08-17T03:52:09;4.05;;;2.03;;
44508;SDS011;30214;52.246;14.408;2023-08-17T03:54:36;4.22;;;2.17;;
44508;SDS011;30214;52.246;14.408;2023-08-17T03:57:05;4.57;;;2.50;;
44508;SDS011;30214;52.246;14.408;2023-08-17T03:59:31;5.72;;;2.65;;
44508;SDS011;30214;52.246;14.408;2023-08-17T04:01:58;9.10;;;2.47;;
44508;SDS011;30214;52.246;14.408;2023-08-17T04:04:26;4.35;;;2.20;;
44508;SDS011;30214;52.246;14.408;2023-08-17T04:06:54;8.75;;;2.70;;
44508;SDS011;30214;52.246;14.408;2023-08-17T04:09:22;7.50;;;2.47;;
44508;SDS011;30214;52.246;14.408;2023-08-17T04:11:49;8.27;;;2.50;;
44508;SDS011;30214;52.246;14.408;2023-08-17T04:14:17;6.13;;;2.33;;
44508;SDS011;30214;52.246;14.408;2023-08-17T04:16:46;8.18;;;2.38;;
44508;SDS011;30214;52.246;14.408;2023-08-17T04:19:12;5.18;;;2.22;;
44508;SDS011;30214;52.246;14.408;2023-08-17T04:21:39;5.35;;;2.35;;
44508;SDS011;30214;52.246;14.408;2023-08-17T04:24:07;7.90;;;2.47;;
44508;SDS011;30214;52.246;14.408;2023-08-17T04:26:34;4.45;;;2.30;;
44508;SDS011;30214;52.246;14.408;2023-08-17T04:29:01;5.95;;;2.60;;
44508;SDS011;30214;52.246;14.408;2023-08-17T04:31:30;5.68;;;2.45;;
44508;SDS011;30214;52.246;14.408;2023-08-17T04:34:00;7.72;;;2.67;;
44508;SDS011;30214;52.246;14.408;2023-08-17T04:36:27;6.93;;;2.80;;
44508;SDS011;30214;52.246;14.408;2023-08-17T04:38:54;8.30;;;2.28;;
44508;SDS011;30214;52.246;14.408;2023-08-17T04:41:21;6.28;;;2.58;;
44508;SDS011;30214;52.246;14.408;2023-08-17T04:43:49;7.95;;;2.40;;
44508;SDS011;30214;52.246;14.408;2023-08-17T04:46:16;7.32;;;2.60;;
44508;SDS011;30214;52.246;14.408;2023-08-17T04:48:44;5.28;;;2.60;;
44508;SDS011;30214;52.246;14.408;2023-08-17T04:51:12;7.55;;;2.33;;
44508;SDS011;30214;52.246;14.408;2023-08-17T04:53:40;6.82;;;3.05;;
44508;SDS011;30214;52.246;14.408;2023-08-17T04:56:07;6.68;;;3.00;;
44508;SDS011;30214;52.246;14.408;2023-08-17T04:58:33;9.70;;;3.20;;
44508;SDS011;30214;52.246;14.408;2023-08-17T05:01:00;8.25;;;2.70;;
44508;SDS011;30214;52.246;14.408;2023-08-17T05:03:27;4.85;;;2.40;;
44508;SDS011;30214;52.246;14.408;2023-08-17T05:05:57;8.20;;;2.58;;
44508;SDS011;30214;52.246;14.408;2023-08-17T05:08:24;6.22;;;2.15;;
44508;SDS011;30214;52.246;14.408;2023-08-17T05:10:51;5.32;;;2.08;;
44508;SDS011;30214;52.246;14.408;2023-08-17T05:13:18;5.22;;;2.10;;
44508;SDS011;30214;52.246;14.408;2023-08-17T05:15:46;3.95;;;2.25;;
44508;SDS011;30214;52.246;14.408;2023-08-17T05:18:13;7.80;;;2.78;;
44508;SDS011;30214;52.246;14.408;2023-08-17T05:20:40;5.57;;;2.97;;
44508;SDS011;30214;52.246;14.408;2023-08-17T05:23:09;7.43;;;2.47;;
44508;SDS011;30214;52.246;14.408;2023-08-17T05:25:36;5.93;;;2.30;;
44508;SDS011;30214;52.246;14.408;2023-08-17T05:28:03;9.00;;;2.35;;
44508;SDS011;30214;52.246;14.408;2023-08-17T05:30:31;4.30;;;2.22;;
44508;SDS011;30214;52.246;14.408;2023-08-17T05:32:59;5.47;;;2.13;;
44508;SDS011;30214;52.246;14.408;2023-08-17T05:35:26;9.38;;;2.35;;
44508;SDS011;30214;52.246;14.408;2023-08-17T05:37:53;4.65;;;2.10;;
44508;SDS011;30214;52.246;14.408;2023-08-17T05:40:21;8.50;;;2.70;;
44508;SDS011;30214;52.246;14.408;2023-08-17T05:42:48;5.38;;;2.50;;
44508;SDS011;30214;52.246;14.408;2023-08-17T05:45:16;4.88;;;2.10;;
44508;SDS011;30214;52.246;14.408;2023-08-17T05:47:43;6.63;;;2.30;;
44508;SDS011;30214;52.246;14.408;2023-08-17T05:50:10;7.10;;;2.20;;
44508;SDS011;30214;52.246;14.408;2023-08-17T05:52:37;4.30;;;2.15;;
44508;SDS011;30214;52.246;14.408;2023-08-17T05:55:04;4.53;;;2.22;;
44508;SDS011;30214;52.246;14.408;2023-08-17T05:57:33;6.60;;;2.28;;
44508;SDS011;30214;52.246;14.408;2023-08-17T06:00:00;5.97;;;2.20;;
44508;SDS011;30214;52.246;14.408;2023-08-17T06:02:37;4.63;;;2.28;;
44508;SDS011;30214;52.246;14.408;2023-08-17T06:05:04;4.63;;;1.98;;
44508;SDS011;30214;52.246;14.408;2023-08-17T06:07:34;5.15;;;2.30;;
44508;SDS011;30214;52.246;14.408;2023-08-17T06:10:03;10.73;;;3.00;;
44508;SDS011;30214;52.246;14.408;2023-08-17T06:12:32;8.38;;;2.40;;
44508;SDS011;30214;52.246;14.408;2023-08-17T06:15:01;9.30;;;2.70;;
44508;SDS011;30214;52.246;14.408;2023-08-17T06:17:28;8.60;;;2.60;;
44508;SDS011;30214;52.246;14.408;2023-08-17T06:19:55;7.00;;;2.55;;
44508;SDS011;30214;52.246;14.408;2023-08-17T06:22:22;4.30;;;2.33;;
44508;SDS011;30214;52.246;14.408;2023-08-17T06:24:49;5.82;;;2.30;;
44508;SDS011;30214;52.246;14.408;2023-08-17T06:27:16;5.45;;;2.40;;
44508;SDS011;30214;52.246;14.408;2023-08-17T06:29:44;6.05;;;2.30;;
44508;SDS011;30214;52.246;14.408;2023-08-17T06:32:11;3.85;;;2.13;;
44508;SDS011;30214;52.246;14.408;2023-08-17T06:34:37;4.53;;;2.20;;
44508;SDS011;30214;52.246;14.408;2023-08-17T06:37:04;4.35;;;2.63;;
44508;SDS011;30214;52.246;14.408;2023-08-17T06:39:31;10.07;;;2.80;;
44508;SDS011;30214;52.246;14.408;2023-08-17T06:41:58;5.28;;;2.40;;
44508;SDS011;30214;52.246;14.408;2023-08-17T06:44:25;5.63;;;3.00;;
44508;SDS011;30214;52.246;14.408;2023-08-17T06:46:53;6.22;;;2.58;;
44508;SDS011;30214;52.246;14.408;2023-08-17T06:49:20;5.45;;;2.70;;
44508;SDS011;30214;52.246;14.408;2023-08-17T06:51:47;7.70;;;2.40;;
44508;SDS011;30214;52.246;14.408;2023-08-17T06:54:13;5.28;;;3.03;;
44508;SDS011;30214;52.246;14.408;2023-08-17T06:56:40;5.70;;;2.50;;
44508;SDS011;30214;52.246;14.408;2023-08-17T06:59:07;4.38;;;2.90;;
44508;SDS011;30214;52.246;14.408;2023-08-17T07:01:34;6.30;;;2.42;;
44508;SDS011;30214;52.246;14.408;2023-08-17T07:04:03;9.38;;;2.80;;
44508;SDS011;30214;52.246;14.408;2023-08-17T07:06:30;6.25;;;2.35;;
44508;SDS011;30214;52.246;14.408;2023-08-17T07:08:57;4.60;;;2.55;;
44508;SDS011;30214;52.246;14.408;2023-08-17T07:11:24;4.57;;;2.75;;
44508;SDS011;30214;52.246;14.408;2023-08-17T07:13:51;7.75;;;2.75;;
44508;SDS011;30214;52.246;14.408;2023-08-17T07:16:18;5.30;;;2.53;;
44508;SDS011;30214;52.246;14.408;2023-08-17T07:18:45;4.47;;;2.50;;
44508;SDS011;30214;52.246;14.408;2023-08-17T07:21:13;4.22;;;2.55;;
44508;SDS011;30214;52.246;14.408;2023-08-17T07:23:44;5.70;;;2.97;;
44508;SDS011;30214;52.246;14.408;2023-08-17T07:26:12;6.57;;;2.95;;
44508;SDS011;30214;52.246;14.408;2023-08-17T07:28:39;4.53;;;3.00;;
44508;SDS011;30214;52.246;14.408;2023-08-17T07:31:06;6.47;;;3.25;;
44508;SDS011;30214;52.246;14.408;2023-08-17T07:33:32;6.93;;;2.97;;
44508;SDS011;30214;52.246;14.408;2023-08-17T07:36:00;5.97;;;3.03;;
44508;SDS011;30214;52.246;14.408;2023-08-17T07:38:28;5.47;;;2.90;;
44508;SDS011;30214;52.246;14.408;2023-08-17T07:40:55;7.47;;;3.28;;
44508;SDS011;30214;52.246;14.408;2023-08-17T07:43:22;5.57;;;2.70;;
44508;SDS011;30214;52.246;14.408;2023-08-17T07:45:52;4.93;;;2.72;;
44508;SDS011;30214;52.246;14.408;2023-08-17T07:48:20;6.72;;;3.00;;
44508;SDS011;30214;52.246;14.408;2023-08-17T07:50:48;7.60;;;3.78;;
44508;SDS011;30214;52.246;14.408;2023-08-17T07:53:15;4.57;;;2.83;;
44508;SDS011;30214;52.246;14.408;2023-08-17T07:55:43;5.50;;;3.38;;
44508;SDS011;30214;52.246;14.408;2023-08-17T07:58:11;4.90;;;3.20;;
44508;SDS011;30214;52.246;14.408;2023-08-17T08:00:37;4.93;;;3.10;;
44508;SDS011;30214;52.246;14.408;2023-08-17T08:03:05;6.88;;;3.15;;
44508;SDS011;30214;52.246;14.408;2023-08-17T08:05:32;6.25;;;3.38;;
44508;SDS011;30214;52.246;14.408;2023-08-17T08:07:59;5.78;;;3.00;;
44508;SDS011;30214;52.246;14.408;2023-08-17T08:10:26;5.45;;;3.38;;
44508;SDS011;30214;52.246;14.408;2023-08-17T08:12:55;8.13;;;3.10;;
44508;SDS011;30214;52.246;14.408;2023-08-17T08:15:22;6.00;;;3.33;;
44508;SDS011;30214;52.246;14.408;2023-08-17T08:17:49;6.03;;;3.13;;
44508;SDS011;30214;52.246;14.408;2023-08-17T08:20:16;6.38;;;3.38;;
44508;SDS011;30214;52.246;14.408;2023-08-17T08:22:43;5.85;;;3.50;;
44508;SDS011;30214;52.246;14.408;2023-08-17T08:25:10;5.57;;;3.10;;
44508;SDS011;30214;52.246;14.408;2023-08-17T08:27:37;8.20;;;3.30;;
44508;SDS011;30214;52.246;14.408;2023-08-17T08:30:06;4.88;;;3.13;;
44508;SDS011;30214;52.246;14.408;2023-08-17T08:32:33;4.80;;;3.33;;
44508;SDS011;30214;52.246;14.408;2023-08-17T08:35:01;6.18;;;3.65;;
44508;SDS011;30214;52.246;14.408;2023-08-17T08:37:29;7.03;;;3.65;;
44508;SDS011;30214;52.246;14.408;2023-08-17T08:39:55;5.15;;;3.30;;
44508;SDS011;30214;52.246;14.408;2023-08-17T08:42:24;5.55;;;3.58;;
44508;SDS011;30214;52.246;14.408;2023-08-17T08:44:51;5.38;;;3.60;;
44508;SDS011;30214;52.246;14.408;2023-08-17T08:47:19;7.30;;;4.25;;
44508;SDS011;30214;52.246;14.408;2023-08-17T08:49:49;6.40;;;4.05;;
44508;SDS011;30214;52.246;14.408;2023-08-17T08:52:26;5.13;;;4.00;;
44508;SDS011;30214;52.246;14.408;2023-08-17T08:54:59;7.70;;;3.88;;
44508;SDS011;30214;52.246;14.408;2023-08-17T08:57:31;6.78;;;4.38;;
44508;SDS011;30214;52.246;14.408;2023-08-17T08:59:59;5.95;;;4.15;;
44508;SDS011;30214;52.246;14.408;2023-08-17T09:02:27;8.07;;;4.60;;
44508;SDS011;30214;52.246;14.408;2023-08-17T09:04:54;7.50;;;5.10;;
44508;SDS011;30214;52.246;14.408;2023-08-17T09:07:22;7.55;;;4.85;;
44508;SDS011;30214;52.246;14.408;2023-08-17T09:09:49;7.05;;;5.25;;
44508;SDS011;30214;52.246;14.408;2023-08-17T09:12:17;7.25;;;5.10;;
44508;SDS011;30214;52.246;14.408;2023-08-17T09:14:44;8.00;;;5.20;;
44508;SDS011;30214;52.246;14.408;2023-08-17T09:17:10;9.27;;;5.68;;
44508;SDS011;30214;52.246;14.408;2023-08-17T09:19:39;6.25;;;5.38;;
44508;SDS011;30214;52.246;14.408;2023-08-17T09:22:06;9.05;;;6.07;;
44508;SDS011;30214;52.246;14.408;2023-08-17T09:24:36;9.63;;;5.45;;
44508;SDS011;30214;52.246;14.408;2023-08-17T09:27:03;10.00;;;5.43;;
44508;SDS011;30214;52.246;14.408;2023-08-17T09:29:31;6.97;;;5.18;;
44508;SDS011;30214;52.246;14.408;2023-08-17T09:32:04;6.28;;;5.05;;
44508;SDS011;30214;52.246;14.408;2023-08-17T09:34:31;7.70;;;4.93;;
44508;SDS011;30214;52.246;14.408;2023-08-17T09:37:03;6.10;;;4.60;;
44508;SDS011;30214;52.246;14.408;2023-08-17T09:39:30;5.82;;;4.47;;
44508;SDS011;30214;52.246;14.408;2023-08-17T09:41:57;7.30;;;4.90;;
44508;SDS011;30214;52.246;14.408;2023-08-17T09:44:25;5.88;;;4.45;;
44508;SDS011;30214;52.246;14.408;2023-08-17T09:46:54;5.97;;;4.60;;
44508;SDS011;30214;52.246;14.408;2023-08-17T09:49:22;6.93;;;5.03;;
44508;SDS011;30214;52.246;14.408;2023-08-17T09:51:49;6.95;;;4.80;;
44508;SDS011;30214;52.246;14.408;2023-08-17T09:54:22;7.25;;;4.85;;
44508;SDS011;30214;52.246;14.408;2023-08-17T09:56:51;7.60;;;4.90;;
44508;SDS011;30214;52.246;14.408;2023-08-17T09:59:19;6.18;;;4.93;;
44508;SDS011;30214;52.246;14.408;2023-08-17T10:01:48;8.25;;;5.18;;
44508;SDS011;30214;52.246;14.408;2023-08-17T10:04:17;8.73;;;4.72;;
44508;SDS011;30214;52.246;14.408;2023-08-17T10:06:47;8.23;;;4.93;;
44508;SDS011;30214;52.246;14.408;2023-08-17T10:09:16;6.68;;;4.70;;
44508;SDS011;30214;52.246;14.408;2023-08-17T10:11:50;5.88;;;5.10;;
44508;SDS011;30214;52.246;14.408;2023-08-17T10:14:21;5.13;;;4.60;;
44508;SDS011;30214;52.246;14.408;2023-08-17T10:16:53;7.47;;;5.20;;
44508;SDS011;30214;52.246;14.408;2023-08-17T10:19:29;7.78;;;5.07;;
44508;SDS011;30214;52.246;14.408;2023-08-17T10:22:01;9.68;;;5.15;;
44508;SDS011;30214;52.246;14.408;2023-08-17T10:24:36;7.03;;;4.90;;
44508;SDS011;30214;52.246;14.408;2023-08-17T10:27:04;6.88;;;4.63;;
44508;SDS011;30214;52.246;14.408;2023-08-17T10:29:32;6.72;;;4.90;;
44508;SDS011;30214;52.246;14.408;2023-08-17T10:32:00;6.78;;;4.90;;
44508;SDS011;30214;52.246;14.408;2023-08-17T10:34:27;7.35;;;4.88;;
44508;SDS011;30214;52.246;14.408;2023-08-17T10:36:55;6.50;;;4.80;;
44508;SDS011;30214;52.246;14.408;2023-08-17T10:39:25;7.63;;;4.93;;
44508;SDS011;30214;52.246;14.408;2023-08-17T10:41:56;8.25;;;5.10;;
44508;SDS011;30214;52.246;14.408;2023-08-17T10:44:40;7.05;;;5.45;;
44508;SDS011;30214;52.246;14.408;2023-08-17T10:47:19;5.65;;;4.45;;
44508;SDS011;30214;52.246;14.408;2023-08-17T10:49:47;6.43;;;4.47;;
44508;SDS011;30214;52.246;14.408;2023-08-17T10:52:24;5.75;;;4.80;;
44508;SDS011;30214;52.246;14.408;2023-08-17T10:54:55;5.68;;;4.45;;
44508;SDS011;30214;52.246;14.408;2023-08-17T10:57:31;6.13;;;4.55;;
44508;SDS011;30214;52.246;14.408;2023-08-17T11:02:55;6.65;;;4.50;;
44508;SDS011;30214;52.246;14.408;2023-08-17T11:05:37;6.60;;;4.00;;
44508;SDS011;30214;52.246;14.408;2023-08-17T11:08:07;6.60;;;4.10;;
44508;SDS011;30214;52.246;14.408;2023-08-17T11:10:36;7.10;;;4.35;;
44508;SDS011;30214;52.246;14.408;2023-08-17T11:13:05;5.25;;;4.03;;
44508;SDS011;30214;52.246;14.408;2023-08-17T11:15:36;4.88;;;4.07;;
44508;SDS011;30214;52.246;14.408;2023-08-17T11:18:05;7.53;;;4.28;;
44508;SDS011;30214;52.246;14.408;2023-08-17T11:20:33;5.18;;;3.92;;
44508;SDS011;30214;52.246;14.408;2023-08-17T11:23:00;6.25;;;4.20;;
44508;SDS011;30214;52.246;14.408;2023-08-17T11:25:29;7.70;;;5.22;;
44508;SDS011;30214;52.246;14.408;2023-08-17T11:27:57;5.88;;;4.00;;
44508;SDS011;30214;52.246;14.408;2023-08-17T11:30:27;5.55;;;4.50;;
44508;SDS011;30214;52.246;14.408;2023-08-17T11:32:57;7.28;;;4.55;;
44508;SDS011;30214;52.246;14.408;2023-08-17T11:35:24;5.60;;;3.92;;
44508;SDS011;30214;52.246;14.408;2023-08-17T11:37:51;5.75;;;4.10;;
44508;SDS011;30214;52.246;14.408;2023-08-17T11:40:18;5.28;;;4.03;;
44508;SDS011;30214;52.246;14.408;2023-08-17T11:42:46;7.57;;;4.43;;
44508;SDS011;30214;52.246;14.408;2023-08-17T11:45:14;8.45;;;4.72;;
44508;SDS011;30214;52.246;14.408;2023-08-17T11:47:43;5.70;;;4.20;;
44508;SDS011;30214;52.246;14.408;2023-08-17T11:50:11;5.47;;;4.00;;
44508;SDS011;30214;52.246;14.408;2023-08-17T11:52:38;5.75;;;3.90;;
44508;SDS011;30214;52.246;14.408;2023-08-17T11:55:06;4.68;;;3.88;;
44508;SDS011;30214;52.246;14.408;2023-08-17T11:57:35;5.53;;;4.25;;
44508;SDS011;30214;52.246;14.408;2023-08-17T12:00:04;7.03;;;4.18;;
44508;SDS011;30214;52.246;14.408;2023-08-17T12:02:32;4.95;;;4.10;;
44508;SDS011;30214;52.246;14.408;2023-08-17T12:05:04;7.00;;;4.45;;
44508;SDS011;30214;52.246;14.408;2023-08-17T12:07:32;6.38;;;4.30;;
44508;SDS011;30214;52.246;14.408;2023-08-17T12:09:59;5.40;;;4.32;;
44508;SDS011;30214;52.246;14.408;2023-08-17T12:12:28;7.60;;;3.95;;
44508;SDS011;30214;52.246;14.408;2023-08-17T12:14:56;5.40;;;3.83;;
44508;SDS011;30214;52.246;14.408;2023-08-17T12:17:24;4.90;;;3.58;;
44508;SDS011;30214;52.246;14.408;2023-08-17T12:19:54;5.20;;;4.03;;
44508;SDS011;30214;52.246;14.408;2023-08-17T12:22:24;4.05;;;3.40;;
44508;SDS011;30214;52.246;14.408;2023-08-17T12:24:52;5.65;;;3.63;;
44508;SDS011;30214;52.246;14.408;2023-08-17T12:27:21;6.50;;;3.97;;
44508;SDS011;30214;52.246;14.408;2023-08-17T12:29:50;4.95;;;3.78;;
44508;SDS011;30214;52.246;14.408;2023-08-17T12:32:18;7.68;;;4.00;;
44508;SDS011;30214;52.246;14.408;2023-08-17T12:34:46;7.55;;;3.85;;
44508;SDS011;30214;52.246;14.408;2023-08-17T12:37:18;6.45;;;3.92;;
44508;SDS011;30214;52.246;14.408;2023-08-17T12:39:47;5.57;;;3.65;;
44508;SDS011;30214;52.246;14.408;2023-08-17T12:42:14;4.38;;;3.53;;
44508;SDS011;30214;52.246;14.408;2023-08-17T12:44:42;8.40;;;3.47;;
44508;SDS011;30214;52.246;14.408;2023-08-17T12:47:09;4.88;;;3.50;;
44508;SDS011;30214;52.246;14.408;2023-08-17T12:49:37;5.72;;;3.50;;
44508;SDS011;30214;52.246;14.408;2023-08-17T12:52:04;4.50;;;3.55;;
44508;SDS011;30214;52.246;14.408;2023-08-17T12:54:31;7.78;;;4.20;;
44508;SDS011;30214;52.246;14.408;2023-08-17T12:57:00;7.15;;;3.60;;
44508;SDS011;30214;52.246;14.408;2023-08-17T12:59:28;6.72;;;3.67;;
44508;SDS011;30214;52.246;14.408;2023-08-17T13:01:55;8.55;;;3.80;;
44508;SDS011;30214;52.246;14.408;2023-08-17T13:04:23;6.28;;;3.70;;
44508;SDS011;30214;52.246;14.408;2023-08-17T13:06:51;6.95;;;2.95;;
44508;SDS011;30214;52.246;14.408;2023-08-17T13:09:20;4.18;;;3.50;;
44508;SDS011;30214;52.246;14.408;2023-08-17T13:11:48;6.78;;;3.60;;
44508;SDS011;30214;52.246;14.408;2023-08-17T13:14:16;5.72;;;3.35;;
44508;SDS011;30214;52.246;14.408;2023-08-17T13:16:43;4.45;;;3.30;;
44508;SDS011;30214;52.246;14.408;2023-08-17T13:19:10;5.10;;;3.78;;
44508;SDS011;30214;52.246;14.408;2023-08-17T13:21:37;4.07;;;3.15;;
44508;SDS011;30214;52.246;14.408;2023-08-17T13:24:04;4.68;;;3.20;;
44508;SDS011;30214;52.246;14.408;2023-08-17T13:26:31;5.85;;;3.40;;
44508;SDS011;30214;52.246;14.408;2023-08-17T13:28:58;6.45;;;3.40;;
44508;SDS011;30214;52.246;14.408;2023-08-17T13:31:27;5.60;;;3.50;;
44508;SDS011;30214;52.246;14.408;2023-08-17T13:33:54;4.65;;;3.67;;
44508;SDS011;30214;52.246;14.408;2023-08-17T13:36:21;4.80;;;3.10;;
44508;SDS011;30214;52.246;14.408;2023-08-17T13:38:48;5.05;;;3.28;;
44508;SDS011;30214;52.246;14.408;2023-08-17T13:41:14;5.03;;;3.35;;
44508;SDS011;30214;52.246;14.408;2023-08-17T13:43:41;7.25;;;3.28;;
44508;SDS011;30214;52.246;14.408;2023-08-17T13:46:08;5.15;;;3.47;;
44508;SDS011;30214;52.246;14.408;2023-08-17T13:48:37;7.20;;;3.72;;
44508;SDS011;30214;52.246;14.408;2023-08-17T13:51:05;8.13;;;4.15;;
44508;SDS011;30214;52.246;14.408;2023-08-17T13:53:32;5.22;;;3.75;;
44508;SDS011;30214;52.246;14.408;2023-08-17T13:55:59;4.90;;;3.65;;
44508;SDS011;30214;52.246;14.408;2023-08-17T13:58:26;4.93;;;3.88;;
44508;SDS011;30214;52.246;14.408;2023-08-17T14:00:53;4.38;;;3.38;;
44508;SDS011;30214;52.246;14.408;2023-08-17T14:03:20;6.07;;;3.70;;
44508;SDS011;30214;52.246;14.408;2023-08-17T14:05:48;6.72;;;3.50;;
44508;SDS011;30214;52.246;14.408;2023-08-17T14:08:15;4.47;;;3.20;;
44508;SDS011;30214;52.246;14.408;2023-08-17T14:10:42;4.38;;;3.30;;
44508;SDS011;30214;52.246;14.408;2023-08-17T14:13:09;5.75;;;3.25;;
44508;SDS011;30214;52.246;14.408;2023-08-17T14:15:36;6.20;;;3.00;;
44508;SDS011;30214;52.246;14.408;2023-08-17T14:18:03;4.65;;;3.45;;
44508;SDS011;30214;52.246;14.408;2023-08-17T14:20:31;3.55;;;2.88;;
44508;SDS011;30214;52.246;14.408;2023-08-17T14:22:59;5.45;;;3.30;;
44508;SDS011;30214;52.246;14.408;2023-08-17T14:25:27;5.05;;;3.03;;
44508;SDS011;30214;52.246;14.408;2023-08-17T14:27:54;4.72;;;2.80;;
44508;SDS011;30214;52.246;14.408;2023-08-17T14:30:21;4.65;;;2.97;;
44508;SDS011;30214;52.246;14.408;2023-08-17T14:32:50;7.00;;;2.85;;
44508;SDS011;30214;52.246;14.408;2023-08-17T14:35:17;4.70;;;3.05;;
44508;SDS011;30214;52.246;14.408;2023-08-17T14:37:44;5.13;;;3.20;;
44508;SDS011;30214;52.246;14.408;2023-08-17T14:40:13;5.13;;;3.20;;